Charles City, IA (50616)

3:13 AM CDT on March 29, 2017 (GMT -0500)
La Crosse Technology | | Change Station

Elev 0 ft 43.07 °N, 92.58 °W | Updated 27 seconds ago

Partly Cloudy
Partly Cloudy
45.3 °F
Feels Like 43 °F
N
4.3
Wind Variable Wind from NE
Gusts 5.6 mph

Today
High -- | Low -- °F
--% Chance of Precip.
Yesterday
High -- | Low -- °F
Precip. -- in
Pressure 30.18 in
Visibility 10.0 miles
Clouds Few 18000 ft
Windchill 43 °F
Dew Point 42 °F
Humidity 88%
Rainfall 0.00 in
Snow Depth Not available.
6:57 AM 7:33 PM
New Moon, 2% visible
METAR KCCY 290815Z AUTO 05006KT 10SM FEW180 05/05 A3018 RMK AO2
Pressure 30.18 in
Visibility 10.0 miles
Clouds Few 18000 ft
Windchill 43 °F
Dew Point 42 °F
Humidity 88%
Rainfall 0.00 in
Snow Depth Not available.
6:57 AM 7:33 PM
New Moon, 2% visible
METAR KCCY 290815Z AUTO 05006KT 10SM FEW180 05/05 A3018 RMK AO2

Get Severe Weather Alerts

Thanks for signing up!

Be on the lookout for a verification email in your inbox.

You'll start receiving the daily forecast at 8 AM.

×

10-Day Weather Forecast

Almanac

Astronomy

Mar. 29, 2017 Rise Set
Actual Time
Civil Twilight
Nautical Twilight
Astronomical Twilight
Moon
Length of Visible Light
Length of Day
Tomorrow will be .
, % of the Moon is Illuminated

Today's Extremes

State Highs State Lows

Community

WunderPhotos

Upload Photos

1,962,540 photos uploaded!

WunderBlog® & News

Nearby

Air Quality

  Air Quality AQ Index Pollutant
Not available.

Snow Depth

Station Depth Elevation

Earthquake Activity

City Distance Mag. Time & Date
Minimum magnitude displayed is 2.5.

Earthquake Activity

City Distance Mag. Time & Date
Minimum magnitude displayed is 2.5.

Coastal Water Temperatures

Place Temperature

Stations

Nearby Weather Stations

Station Location Temp. Windchill Dew Point Humidity Wind Precip. Elev Updated Type
                   

Watches & Warnings

There are currently no watches in effect.